Time;durP1;ratioP1;P1;durP2;ratioP2;P2;SDS_P1;SDS_P2;PMS_P1;PMS_P2;Temp;Humidity;BMP_temperature;BMP_pressure;BME280_temperature;BME280_humidity;BME280_pressure;Samples;Min_cycle;Max_cycle;Signal;HPM_P1;HPM_P2
2021/09/24 00:01:34;;;;;;;10.73;4.70;;;22.00;58.10;;;;;;6277408;28;20112;-77
2021/09/24 00:04:36;;;;;;;8.23;4.47;;;22.00;58.20;;;;;;6255088;28;20124;-77
2021/09/24 00:07:37;;;;;;;9.20;4.47;;;22.00;58.30;;;;;;6263152;28;20334;-77
2021/09/24 00:10:39;;;;;;;7.88;4.13;;;22.00;58.40;;;;;;6253737;28;20030;-77
2021/09/24 00:13:39;;;;;;;12.95;4.45;;;22.00;58.50;;;;;;6244030;28;20064;-77
2021/09/24 00:16:40;;;;;;;8.23;3.95;;;22.00;58.60;;;;;;6248167;28;20037;-77
2021/09/24 00:19:41;;;;;;;6.20;4.00;;;21.90;58.60;;;;;;6244028;28;20029;-78
2021/09/24 00:22:42;;;;;;;6.35;4.22;;;21.90;58.70;;;;;;6271997;28;20438;-77
2021/09/24 00:25:43;;;;;;;8.65;4.65;;;22.00;58.80;;;;;;6272527;28;20428;-77
2021/09/24 00:28:44;;;;;;;6.20;4.15;;;21.80;58.90;;;;;;6241358;28;20037;-77
2021/09/24 00:31:45;;;;;;;10.32;3.90;;;21.80;59.10;;;;;;6239565;28;20029;-77
2021/09/24 00:34:46;;;;;;;8.23;4.05;;;21.80;59.40;;;;;;6248654;28;20021;-77
2021/09/24 00:37:47;;;;;;;6.32;3.72;;;21.80;59.40;;;;;;6239850;28;20042;-78
2021/09/24 00:40:48;;;;;;;8.23;4.10;;;21.80;59.40;;;;;;6245043;28;20033;-77
2021/09/24 00:43:49;;;;;;;7.35;3.60;;;21.80;59.30;;;;;;6248252;28;20049;-77
2021/09/24 00:46:50;;;;;;;8.05;4.30;;;21.70;59.20;;;;;;6246810;28;20277;-77
2021/09/24 00:49:51;;;;;;;8.93;3.95;;;21.70;59.20;;;;;;6245733;28;20041;-77
2021/09/24 00:52:53;;;;;;;6.38;3.35;;;21.70;59.20;;;;;;6250545;28;20352;-77
2021/09/24 00:55:55;;;;;;;7.82;3.88;;;21.70;59.10;;;;;;6243154;28;20059;-77
2021/09/24 00:58:56;;;;;;;5.38;3.90;;;21.70;59.20;;;;;;6245202;28;20076;-77
2021/09/24 01:01:57;;;;;;;6.38;3.83;;;21.60;59.20;;;;;;6245893;28;20463;-77
2021/09/24 01:04:58;;;;;;;16.77;4.13;;;21.60;59.20;;;;;;6242348;28;20037;-78
2021/09/24 01:08:01;;;;;;;6.30;4.07;;;21.60;59.30;;;;;;6242449;28;20397;-78
2021/09/24 01:11:02;;;;;;;7.18;4.38;;;21.60;59.40;;;;;;6231318;28;20029;-78
2021/09/24 01:14:04;;;;;;;4.65;3.38;;;21.50;59.50;;;;;;6258750;28;20311;-78
2021/09/24 01:17:05;;;;;;;7.22;4.43;;;21.50;59.60;;;;;;6270214;28;20119;-78
2021/09/24 01:20:08;;;;;;;6.75;3.63;;;21.50;59.70;;;;;;6271878;28;20442;-78
2021/09/24 01:23:09;;;;;;;7.82;3.92;;;21.40;59.70;;;;;;6271924;28;20044;-77
2021/09/24 01:26:10;;;;;;;6.50;4.15;;;21.40;59.90;;;;;;6252908;28;20033;-77
2021/09/24 01:29:11;;;;;;;6.85;4.43;;;21.40;60.10;;;;;;6271672;28;20047;-78
2021/09/24 01:32:12;;;;;;;7.88;4.18;;;21.40;60.30;;;;;;6271011;28;20394;-78
2021/09/24 01:35:15;;;;;;;8.77;4.30;;;21.40;60.30;;;;;;6222566;28;20037;-77
2021/09/24 01:38:16;;;;;;;6.97;4.43;;;21.30;60.30;;;;;;6222300;28;20367;-78
2021/09/24 01:41:17;;;;;;;6.75;4.47;;;21.30;60.60;;;;;;6240699;28;20029;-78
2021/09/24 01:44:18;;;;;;;5.53;3.78;;;21.30;60.70;;;;;;6265930;28;20032;-78
2021/09/24 01:47:19;;;;;;;5.45;3.75;;;21.30;61.60;;;;;;6270471;28;20538;-78
2021/09/24 01:50:20;;;;;;;11.35;3.90;;;21.30;60.90;;;;;;6219468;28;20029;-78
2021/09/24 01:53:21;;;;;;;7.22;3.60;;;21.20;61.00;;;;;;6229110;28;20061;-78
2021/09/24 01:56:22;;;;;;;8.35;3.60;;;21.20;61.00;;;;;;6245908;28;20029;-78
2021/09/24 01:59:23;;;;;;;6.57;3.72;;;21.20;60.80;;;;;;6236141;28;20041;-77
2021/09/24 02:02:24;;;;;;;8.60;3.88;;;21.20;60.90;;;;;;6239573;28;20069;-78
2021/09/24 02:05:25;;;;;;;7.50;3.75;;;21.10;60.70;;;;;;6270675;28;20045;-78
2021/09/24 02:08:26;;;;;;;6.30;3.88;;;21.10;60.70;;;;;;6276624;28;20029;-77
2021/09/24 02:11:27;;;;;;;7.75;3.58;;;21.10;60.70;;;;;;6269652;28;20478;-78
2021/09/24 02:14:28;;;;;;;10.23;3.83;;;21.10;60.70;;;;;;6270851;28;20029;-78
2021/09/24 02:17:28;;;;;;;7.95;4.18;;;21.00;60.70;;;;;;6269479;28;20037;-78
2021/09/24 02:20:29;;;;;;;6.45;3.83;;;21.00;60.90;;;;;;6270722;28;20036;-77
2021/09/24 02:23:31;;;;;;;5.93;4.15;;;21.00;60.90;;;;;;6270875;28;20043;-78
2021/09/24 02:26:32;;;;;;;8.48;3.97;;;21.00;61.10;;;;;;6268329;28;20073;-78
2021/09/24 02:29:33;;;;;;;6.00;4.30;;;21.00;61.10;;;;;;6269149;28;20048;-78
2021/09/24 02:32:34;;;;;;;4.97;3.25;;;21.00;61.30;;;;;;6266724;28;20029;-78
2021/09/24 02:35:34;;;;;;;7.70;4.30;;;20.90;61.40;;;;;;6269489;28;20430;-78
2021/09/24 02:38:36;;;;;;;6.75;4.10;;;20.90;61.60;;;;;;6249174;28;20064;-78
2021/09/24 02:41:37;;;;;;;11.13;3.85;;;20.90;61.70;;;;;;6245794;28;20454;-78
2021/09/24 02:44:38;;;;;;;8.80;3.80;;;20.90;61.80;;;;;;6238615;28;20040;-76
2021/09/24 02:47:39;;;;;;;8.27;3.55;;;20.90;62.10;;;;;;6247275;28;20112;-79
2021/09/24 02:50:40;;;;;;;6.85;3.22;;;20.90;62.30;;;;;;6245049;28;20335;-76
2021/09/24 02:53:42;;;;;;;4.90;3.42;;;20.80;62.30;;;;;;6246269;28;20052;-76
2021/09/24 02:56:43;;;;;;;13.68;4.40;;;20.80;62.40;;;;;;6268247;28;20029;-76
2021/09/24 02:59:44;;;;;;;10.98;4.63;;;20.70;62.50;;;;;;6269377;28;20112;-76
2021/09/24 03:02:45;;;;;;;11.82;4.18;;;20.70;62.60;;;;;;6262590;28;20090;-77
2021/09/24 03:05:46;;;;;;;5.70;3.85;;;20.70;62.80;;;;;;6273970;28;20025;-77
2021/09/24 03:08:47;;;;;;;10.80;4.15;;;20.70;62.90;;;;;;6273659;28;20108;-77
2021/09/24 03:11:48;;;;;;;5.68;3.88;;;20.60;63.00;;;;;;6273717;28;20028;-77
2021/09/24 03:14:49;;;;;;;6.40;3.85;;;20.60;63.20;;;;;;6273639;28;20040;-77
2021/09/24 03:17:50;;;;;;;10.80;3.50;;;20.50;63.30;;;;;;6248247;28;20042;-77
2021/09/24 03:20:52;;;;;;;12.35;4.30;;;20.50;63.60;;;;;;6249055;28;20053;-77
2021/09/24 03:23:53;;;;;;;6.35;3.72;;;20.40;63.80;;;;;;6229262;28;20025;-78
2021/09/24 03:26:54;;;;;;;7.28;4.25;;;20.30;64.00;;;;;;6246577;28;20091;-78
2021/09/24 03:29:54;;;;;;;7.70;3.95;;;20.30;64.10;;;;;;6270789;28;20115;-78
2021/09/24 03:32:55;;;;;;;9.15;4.15;;;20.30;64.30;;;;;;6269937;28;20033;-78
2021/09/24 03:35:58;;;;;;;8.52;4.53;;;20.20;64.30;;;;;;6244845;28;20064;-78
2021/09/24 03:38:59;;;;;;;7.78;4.25;;;20.20;64.50;;;;;;6256670;28;20407;-77
2021/09/24 03:42:00;;;;;;;8.88;4.70;;;20.20;64.70;;;;;;6234872;28;20037;-77
2021/09/24 03:45:01;;;;;;;9.65;4.43;;;20.20;64.80;;;;;;6232550;28;20141;-78
2021/09/24 03:48:02;;;;;;;8.07;4.50;;;20.10;64.80;;;;;;6254715;28;20098;-78
2021/09/24 03:51:03;;;;;;;7.38;4.45;;;20.10;65.00;;;;;;6273027;28;20041;-77
2021/09/24 03:54:05;;;;;;;15.27;6.43;;;20.10;65.00;;;;;;6262730;28;20040;-76
2021/09/24 03:57:06;;;;;;;9.82;5.28;;;20.10;66.00;;;;;;6273706;28;20043;-76
2021/09/24 04:00:08;;;;;;;9.00;5.07;;;20.00;65.20;;;;;;6273883;28;20033;-77
2021/09/24 04:03:12;;;;;;;15.32;5.60;;;20.00;65.40;;;;;;6272282;28;20407;-77
2021/09/24 04:06:14;;;;;;;14.02;7.05;;;20.00;65.60;;;;;;6273757;28;20037;-78
2021/09/24 04:09:14;;;;;;;23.02;7.22;;;20.00;65.80;;;;;;6256510;28;20040;-78
2021/09/24 04:12:15;;;;;;;15.57;6.03;;;20.00;65.90;;;;;;6287184;28;20033;-78
2021/09/24 04:15:16;;;;;;;8.40;4.65;;;20.00;65.90;;;;;;6277656;28;20038;-77
2021/09/24 04:18:17;;;;;;;11.25;4.65;;;20.00;65.80;;;;;;6266661;28;20354;-75
2021/09/24 04:21:19;;;;;;;8.02;4.40;;;20.00;65.60;;;;;;6268743;28;20037;-78
2021/09/24 04:24:20;;;;;;;10.50;4.13;;;20.00;65.50;;;;;;6248472;28;20085;-77
2021/09/24 04:27:21;;;;;;;10.27;4.50;;;20.00;65.30;;;;;;6260119;28;20047;-78
2021/09/24 04:30:23;;;;;;;10.07;4.07;;;20.00;65.30;;;;;;6260828;28;20455;-78
2021/09/24 04:33:23;;;;;;;9.93;4.35;;;20.00;65.20;;;;;;6237215;28;20037;-79
2021/09/24 04:36:24;;;;;;;6.18;4.30;;;20.00;65.30;;;;;;6250440;28;20346;-78
2021/09/24 04:39:25;;;;;;;9.80;4.70;;;20.00;65.40;;;;;;6256891;28;20033;-78
2021/09/24 04:42:27;;;;;;;9.13;4.60;;;20.00;65.50;;;;;;6246320;28;20033;-76
2021/09/24 04:45:28;;;;;;;10.35;4.75;;;19.90;65.70;;;;;;6241132;28;20025;-76
2021/09/24 04:48:31;;;;;;;9.50;4.88;;;19.80;65.80;;;;;;6265986;28;20116;-78
2021/09/24 04:51:32;;;;;;;12.13;4.55;;;19.80;66.00;;;;;;6249657;28;20026;-77
2021/09/24 04:54:33;;;;;;;9.77;4.82;;;19.80;66.10;;;;;;6246475;28;20033;-77
2021/09/24 04:57:35;;;;;;;7.88;4.32;;;19.70;66.20;;;;;;6209771;28;20044;-76
2021/09/24 05:00:36;;;;;;;9.90;5.03;;;19.80;66.30;;;;;;6243035;28;20368;-76
2021/09/24 05:03:37;;;;;;;9.98;4.07;;;19.70;66.20;;;;;;6246866;28;20085;-76
2021/09/24 05:06:38;;;;;;;7.55;4.15;;;19.70;66.20;;;;;;6273181;28;20056;-76
2021/09/24 05:09:39;;;;;;;11.73;4.97;;;19.70;66.20;;;;;;6225850;28;20029;-76
2021/09/24 05:12:40;;;;;;;14.27;4.30;;;19.70;66.20;;;;;;6227712;28;20044;-77
2021/09/24 05:15:41;;;;;;;11.50;4.72;;;19.80;66.20;;;;;;6264773;28;20124;-78
2021/09/24 05:18:45;;;;;;;11.05;5.40;;;19.80;66.30;;;;;;6272298;28;20102;-81
2021/09/24 05:21:47;;;;;;;9.57;4.95;;;19.70;66.20;;;;;;6242617;28;20021;-79
2021/09/24 05:24:47;;;;;;;11.27;5.13;;;19.80;66.30;;;;;;6238451;28;20028;-77
2021/09/24 05:27:49;;;;;;;10.82;4.50;;;19.80;66.20;;;;;;6228096;28;20025;-78
2021/09/24 05:30:50;;;;;;;14.93;5.07;;;19.80;66.10;;;;;;6222416;28;20041;-78
2021/09/24 05:33:53;;;;;;;11.00;5.65;;;19.80;66.00;;;;;;6251091;28;20035;-79
2021/09/24 05:36:53;;;;;;;6.75;4.25;;;19.80;66.00;;;;;;6265042;28;20037;-77
2021/09/24 05:39:54;;;;;;;10.15;4.70;;;19.80;66.00;;;;;;6238219;28;20022;-78
2021/09/24 05:42:55;;;;;;;7.97;4.50;;;19.80;66.10;;;;;;6247326;28;20053;-77
2021/09/24 05:45:56;;;;;;;14.25;4.80;;;19.70;66.10;;;;;;6260276;28;20098;-77
2021/09/24 05:48:57;;;;;;;10.52;4.93;;;19.70;66.10;;;;;;6246204;28;20048;-77
2021/09/24 05:51:59;;;;;;;11.55;4.65;;;19.60;66.20;;;;;;6248462;28;20079;-77
2021/09/24 05:55:00;;;;;;;8.10;4.85;;;19.60;66.40;;;;;;6247168;28;20033;-77
2021/09/24 05:58:01;;;;;;;9.15;4.95;;;19.60;66.40;;;;;;6242313;28;20037;-77
2021/09/24 06:01:02;;;;;;;8.13;4.60;;;19.60;66.50;;;;;;6235602;28;20030;-77
2021/09/24 06:04:04;;;;;;;10.13;4.50;;;19.60;66.70;;;;;;6254579;28;20029;-77
2021/09/24 06:07:06;;;;;;;10.90;4.93;;;19.60;66.80;;;;;;6221014;28;20395;-78
2021/09/24 06:10:08;;;;;;;8.23;4.72;;;19.50;66.90;;;;;;6271739;28;20070;-77
2021/09/24 06:13:09;;;;;;;6.90;4.28;;;19.60;66.90;;;;;;6271293;28;20073;-78
2021/09/24 06:16:10;;;;;;;15.85;4.78;;;19.60;67.00;;;;;;6270954;28;20048;-76
2021/09/24 06:19:11;;;;;;;10.02;4.40;;;19.60;67.00;;;;;;6246699;28;20466;-76
2021/09/24 06:22:12;;;;;;;11.55;5.53;;;19.60;67.10;;;;;;6256192;28;20116;-77
2021/09/24 06:25:14;;;;;;;8.00;4.95;;;19.60;67.10;;;;;;6255771;28;20063;-76
2021/09/24 06:28:15;;;;;;;15.27;5.22;;;19.60;67.00;;;;;;6269098;28;20108;-78
2021/09/24 06:31:16;;;;;;;8.77;4.82;;;19.60;67.10;;;;;;6271542;28;20041;-77
2021/09/24 06:34:17;;;;;;;8.82;5.13;;;19.60;66.90;;;;;;6242479;28;20087;-78
2021/09/24 06:37:18;;;;;;;13.73;5.65;;;19.60;66.80;;;;;;6270846;28;20128;-78
2021/09/24 06:40:19;;;;;;;13.27;5.45;;;19.70;66.80;;;;;;6259901;28;20117;-78
2021/09/24 06:43:20;;;;;;;19.73;5.35;;;19.70;67.50;;;;;;6253699;28;20359;-78
2021/09/24 06:46:22;;;;;;;11.88;4.75;;;19.60;66.60;;;;;;6253880;28;20033;-77
2021/09/24 06:49:24;;;;;;;13.30;5.78;;;19.70;66.60;;;;;;6258258;28;20033;-77
2021/09/24 06:52:26;;;;;;;12.55;5.78;;;19.70;66.70;;;;;;6275000;28;20033;-77
2021/09/24 06:55:27;;;;;;;9.90;5.30;;;19.70;66.60;;;;;;6276027;28;20047;-78
2021/09/24 06:58:28;;;;;;;9.02;4.88;;;19.70;66.60;;;;;;6257907;28;20053;-76
2021/09/24 07:01:29;;;;;;;15.10;5.13;;;19.70;66.50;;;;;;6252470;28;20040;-76
2021/09/24 07:04:31;;;;;;;10.65;4.95;;;19.80;66.50;;;;;;6256977;28;20038;-76
2021/09/24 07:07:32;;;;;;;11.15;5.25;;;19.80;66.50;;;;;;6269499;28;20029;-76
2021/09/24 07:10:33;;;;;;;13.35;6.13;;;19.90;66.50;;;;;;6275514;28;20029;-76
2021/09/24 07:13:33;;;;;;;16.60;6.90;;;19.90;66.30;;;;;;6251662;28;20112;-78
2021/09/24 07:16:36;;;;;;;15.25;5.80;;;20.00;66.20;;;;;;6251249;28;20064;-77
2021/09/24 07:19:38;;;;;;;13.43;5.88;;;20.10;66.00;;;;;;6259153;28;20029;-77
2021/09/24 07:22:39;;;;;;;17.35;5.32;;;20.10;65.70;;;;;;6256098;28;20351;-76
2021/09/24 07:25:40;;;;;;;12.40;5.90;;;20.20;65.50;;;;;;6228926;28;20026;-79
2021/09/24 07:28:41;;;;;;;10.73;4.78;;;20.30;65.30;;;;;;6245587;28;20433;-79
2021/09/24 07:31:42;;;;;;;9.35;4.85;;;20.40;65.00;;;;;;6249249;28;20040;-77
2021/09/24 07:34:43;;;;;;;14.38;5.28;;;20.50;64.60;;;;;;6267119;28;20163;-77
2021/09/24 07:37:46;;;;;;;11.27;4.32;;;20.60;64.30;;;;;;6273490;28;20033;-77
2021/09/24 07:40:47;;;;;;;9.85;4.35;;;20.90;64.20;;;;;;6236121;28;20029;-78
2021/09/24 07:43:52;;;;;;;8.50;4.07;;;20.70;63.80;;;;;;6231628;28;20413;-77
2021/09/24 07:46:53;;;;;;;7.32;4.45;;;20.80;63.60;;;;;;6226139;28;20458;-77
2021/09/24 07:49:53;;;;;;;14.60;5.70;;;20.90;63.30;;;;;;6223995;28;20045;-77
2021/09/24 07:52:55;;;;;;;12.90;4.95;;;21.00;63.00;;;;;;6226332;28;20026;-77
2021/09/24 07:55:58;;;;;;;7.55;4.72;;;21.10;62.70;;;;;;6251815;28;20045;-78
2021/09/24 07:58:59;;;;;;;12.10;4.28;;;21.30;62.50;;;;;;6250116;28;20045;-78
2021/09/24 08:02:00;;;;;;;9.75;4.50;;;21.40;61.90;;;;;;6251783;28;20618;-78
2021/09/24 08:05:00;;;;;;;7.68;4.68;;;21.50;62.20;;;;;;6268400;28;20029;-78
2021/09/24 08:08:02;;;;;;;8.10;4.93;;;21.60;60.90;;;;;;6248583;28;20366;-77
2021/09/24 08:11:03;;;;;;;9.95;5.00;;;21.70;60.60;;;;;;6240339;28;20037;-77
2021/09/24 08:14:04;;;;;;;11.95;5.43;;;21.80;60.40;;;;;;6272289;28;20323;-77
2021/09/24 08:17:05;;;;;;;8.18;4.85;;;21.90;60.10;;;;;;6273076;28;20033;-77
2021/09/24 08:20:07;;;;;;;10.23;5.30;;;22.10;59.80;;;;;;6273096;28;20087;-78
2021/09/24 08:23:08;;;;;;;8.82;5.00;;;22.30;59.60;;;;;;6272833;28;20496;-78
2021/09/24 08:26:09;;;;;;;15.15;5.00;;;22.50;59.00;;;;;;6261012;28;20477;-78
2021/09/24 08:29:11;;;;;;;11.63;4.75;;;22.50;58.60;;;;;;6206103;28;1253002;-78
2021/09/24 08:32:13;;;;;;;10.73;5.18;;;22.70;58.50;;;;;;6249608;28;20045;-78
2021/09/24 08:35:16;;;;;;;14.80;5.13;;;22.90;58.20;;;;;;6264870;28;20060;-78
2021/09/24 08:38:17;;;;;;;10.52;5.15;;;23.00;57.80;;;;;;6244103;28;20149;-78
2021/09/24 08:41:20;;;;;;;7.93;4.85;;;23.10;57.50;;;;;;6267405;28;20117;-78
2021/09/24 08:44:23;;;;;;;7.30;3.72;;;23.20;57.10;;;;;;6265657;28;20120;-78
2021/09/24 08:47:24;;;;;;;9.73;4.13;;;23.30;56.70;;;;;;6278304;28;20442;-78
2021/09/24 08:50:28;;;;;;;10.85;4.38;;;23.30;56.50;;;;;;6263603;28;20092;-78
2021/09/24 08:53:29;;;;;;;7.05;3.55;;;23.40;56.30;;;;;;6240625;28;20163;-78
2021/09/24 08:56:30;;;;;;;8.10;4.18;;;23.40;56.10;;;;;;6263028;28;20454;-78
2021/09/24 08:59:31;;;;;;;7.80;4.47;;;23.50;56.10;;;;;;6256807;28;20037;-76
2021/09/24 09:02:54;;;;;;;15.82;5.35;;;23.60;55.90;;;;;;6249536;28;20355;-77
2021/09/24 09:06:02;;;;;;;8.57;4.20;;;23.80;56.00;;;;;;6262155;28;20111;-77
2021/09/24 09:09:05;;;;;;;6.65;3.20;;;23.90;55.40;;;;;;6217993;28;20032;-78
2021/09/24 09:12:14;;;;;;;9.85;4.72;;;24.00;55.30;;;;;;6222902;28;20096;-77
2021/09/24 09:15:15;;;;;;;9.30;4.97;;;24.10;55.00;;;;;;6213038;28;20030;-78
2021/09/24 09:18:18;;;;;;;8.90;5.10;;;24.20;54.70;;;;;;6212614;28;20060;-78
2021/09/24 09:21:23;;;;;;;12.90;6.40;;;24.20;54.40;;;;;;6221893;28;20042;-78
2021/09/24 09:24:27;;;;;;;19.23;8.02;;;24.30;54.30;;;;;;6215205;28;20030;-78
2021/09/24 09:27:28;;;;;;;6.65;4.30;;;24.40;54.70;;;;;;6223322;28;20717;-78
2021/09/24 09:30:31;;;;;;;6.63;3.95;;;24.50;53.80;;;;;;6206844;28;20049;-78
2021/09/24 09:33:35;;;;;;;9.15;4.82;;;24.50;53.60;;;;;;6240783;28;20037;-78
2021/09/24 09:36:41;;;;;;;22.75;10.02;;;24.50;53.60;;;;;;6233864;28;20029;-79
2021/09/24 09:39:43;;;;;;;10.40;4.18;;;24.60;53.30;;;;;;6212801;28;20070;-78
2021/09/24 09:42:45;;;;;;;9.07;3.95;;;24.70;52.80;;;;;;6231710;28;20316;-78
2021/09/24 09:45:48;;;;;;;12.52;4.80;;;24.70;52.70;;;;;;6221432;28;20022;-78
2021/09/24 09:49:10;;;;;;;10.60;3.40;;;24.80;52.80;;;;;;6223879;28;20037;-78
2021/09/24 09:52:16;;;;;;;8.32;4.78;;;24.90;52.70;;;;;;6234747;28;20445;-78
2021/09/24 09:55:19;;;;;;;5.70;3.45;;;25.00;52.40;;;;;;6264457;28;20029;-79
2021/09/24 09:58:23;;;;;;;4.05;2.72;;;25.10;52.00;;;;;;6252063;28;20418;-78
2021/09/24 10:01:24;;;;;;;14.60;6.93;;;25.20;51.80;;;;;;6248310;28;20483;-78
2021/09/24 10:04:43;;;;;;;9.13;4.65;;;25.30;51.60;;;;;;6266960;28;20033;-80
2021/09/24 10:07:44;;;;;;;5.28;3.33;;;25.40;51.50;;;;;;6259972;28;20029;-77
2021/09/24 10:11:00;;;;;;;11.68;3.75;;;25.50;50.60;;;;;;6239592;28;20469;-79
2021/09/24 10:14:09;;;;;;;9.55;3.30;;;25.60;50.30;;;;;;6248476;28;20029;-77
2021/09/24 10:17:10;;;;;;;7.22;4.10;;;25.60;50.20;;;;;;6267241;28;20116;-79
2021/09/24 10:20:12;;;;;;;6.00;3.28;;;25.60;50.20;;;;;;6230601;28;20117;-77
2021/09/24 10:23:15;;;;;;;4.25;2.90;;;25.70;50.70;;;;;;6243721;28;20033;-77
2021/09/24 10:26:37;;;;;;;5.75;3.70;;;25.90;49.60;;;;;;6250880;28;20159;-79
2021/09/24 10:29:44;;;;;;;10.55;5.85;;;26.20;49.20;;;;;;6251426;28;20029;-79
2021/09/24 10:33:10;;;;;;;8.30;4.90;;;26.60;48.50;;;;;;6221124;28;20038;-79
2021/09/24 10:36:39;;;;;;;9.25;4.35;;;27.00;47.70;;;;;;6218677;28;20386;-80
2021/09/24 10:39:42;;;;;;;5.38;3.40;;;27.30;46.30;;;;;;6246582;28;20037;-78
2021/09/24 10:42:45;;;;;;;6.60;3.80;;;27.60;45.90;;;;;;6259618;28;20029;-79
2021/09/24 10:45:46;;;;;;;7.40;3.95;;;27.70;45.60;;;;;;6258764;28;20029;-79
2021/09/24 10:48:46;;;;;;;5.03;2.80;;;27.90;45.20;;;;;;6207352;28;20067;-79
2021/09/24 10:52:05;;;;;;;6.72;3.50;;;28.10;44.80;;;;;;6237495;28;20120;-79
2021/09/24 10:55:07;;;;;;;5.53;3.13;;;28.30;44.60;;;;;;6244131;28;20049;-77
2021/09/24 10:58:23;;;;;;;5.68;2.78;;;28.60;43.90;;;;;;6260903;28;20067;-79
2021/09/24 11:01:32;;;;;;;9.35;3.45;;;28.80;43.60;;;;;;6247261;28;20065;-79
2021/09/24 11:04:44;;;;;;;5.85;2.70;;;29.00;42.80;;;;;;6250962;28;20385;-78
2021/09/24 11:07:45;;;;;;;7.75;3.53;;;29.10;42.40;;;;;;6267933;28;20029;-78
2021/09/24 11:11:10;;;;;;;5.43;3.10;;;29.30;42.00;;;;;;6242276;28;20047;-79
2021/09/24 11:14:30;;;;;;;5.35;2.75;;;29.50;41.70;;;;;;6233013;28;20037;-79
2021/09/24 11:17:45;;;;;;;8.90;3.60;;;29.70;41.10;;;;;;6255678;28;20346;-78
2021/09/24 11:20:55;;;;;;;4.88;3.22;;;30.00;40.80;;;;;;6267329;28;20333;-78
2021/09/24 11:23:58;;;;;;;6.75;2.90;;;30.20;40.00;;;;;;6270013;28;20078;-78
2021/09/24 11:27:05;;;;;;;7.28;2.83;;;30.40;39.40;;;;;;6264514;28;20103;-78
2021/09/24 11:30:06;;;;;;;5.33;3.03;;;30.70;39.20;;;;;;6254389;28;20441;-78
2021/09/24 11:33:09;;;;;;;5.28;3.10;;;31.40;37.70;;;;;;6263928;28;20261;-78
2021/09/24 11:36:10;;;;;;;6.13;3.40;;;31.40;38.00;;;;;;6250580;28;20501;-79
2021/09/24 11:39:11;;;;;;;4.65;2.80;;;31.70;37.70;;;;;;6247771;28;20065;-78
2021/09/24 11:42:14;;;;;;;4.63;3.20;;;32.00;37.40;;;;;;6248810;28;20047;-78
2021/09/24 11:45:22;;;;;;;15.40;3.15;;;32.20;36.80;;;;;;6243252;28;20466;-78
2021/09/24 11:48:31;;;;;;;7.38;3.03;;;32.30;36.30;;;;;;6220551;28;20413;-78
2021/09/24 11:51:32;;;;;;;12.32;2.78;;;32.60;35.90;;;;;;6231218;28;20231;-78
2021/09/24 11:54:33;;;;;;;10.15;2.83;;;33.00;35.50;;;;;;6246456;28;20055;-77
2021/09/24 11:57:34;;;;;;;8.55;5.13;;;33.40;35.00;;;;;;6249222;28;20037;-78
2021/09/24 12:00:35;;;;;;;5.45;3.33;;;33.70;34.10;;;;;;6270664;28;20116;-77
2021/09/24 12:03:38;;;;;;;4.47;2.53;;;34.00;33.70;;;;;;6260695;28;20064;-78
2021/09/24 12:06:43;;;;;;;8.07;3.38;;;34.40;33.30;;;;;;6253998;28;20033;-78
2021/09/24 12:09:44;;;;;;;7.05;2.80;;;34.80;32.70;;;;;;6269507;28;20056;-78
2021/09/24 12:12:45;;;;;;;5.10;3.30;;;35.20;32.00;;;;;;6269573;28;20044;-80
2021/09/24 12:15:49;;;;;;;4.53;2.83;;;35.50;31.50;;;;;;6249171;28;20060;-79
2021/09/24 12:18:50;;;;;;;6.72;3.28;;;36.00;30.90;;;;;;6247874;28;20117;-79
2021/09/24 12:21:54;;;;;;;6.00;2.80;;;36.60;30.00;;;;;;6250004;28;20025;-79
2021/09/24 12:24:56;;;;;;;5.53;2.53;;;37.00;29.50;;;;;;6247855;28;20099;-78
2021/09/24 12:28:12;;;;;;;8.43;2.75;;;37.40;28.90;;;;;;6247921;28;20083;-79
2021/09/24 12:31:51;;;;;;;7.75;3.10;;;37.80;28.50;;;;;;6247066;28;20065;-80
2021/09/24 12:35:04;;;;;;;7.00;2.72;;;38.10;28.20;;;;;;6249092;28;20053;-79
2021/09/24 12:38:05;;;;;;;5.70;2.67;;;38.30;27.70;;;;;;6226238;28;20549;-79
2021/09/24 12:41:17;;;;;;;10.88;2.47;;;38.80;27.30;;;;;;6270229;28;20033;-80
2021/09/24 12:44:21;;;;;;;4.63;2.17;;;39.20;26.70;;;;;;6270409;28;20057;-79
2021/09/24 12:47:29;;;;;;;5.30;2.83;;;39.60;26.30;;;;;;6262231;28;20030;-78
2021/09/24 12:50:30;;;;;;;9.57;2.20;;;39.50;26.00;;;;;;6255420;28;20422;-79
2021/09/24 12:53:34;;;;;;;5.22;2.42;;;38.80;26.50;;;;;;6271227;28;20036;-79
2021/09/24 12:56:35;;;;;;;7.18;2.20;;;37.80;27.20;;;;;;6273358;28;20029;-79
2021/09/24 12:59:36;;;;;;;3.30;2.10;;;37.00;27.90;;;;;;6272571;28;20110;-79
2021/09/24 13:02:39;;;;;;;4.40;2.50;;;36.40;28.30;;;;;;6271903;28;20029;-79
2021/09/24 13:05:40;;;;;;;4.10;2.25;;;35.90;28.50;;;;;;6285402;28;20072;-77
2021/09/24 13:08:41;;;;;;;5.28;2.08;;;35.40;29.00;;;;;;6281830;28;20056;-79
2021/09/24 13:11:43;;;;;;;3.92;2.65;;;35.50;28.90;;;;;;6290018;28;20507;-78
2021/09/24 13:14:44;;;;;;;7.82;2.33;;;35.50;28.70;;;;;;6247460;28;20029;-78
2021/09/24 13:17:45;;;;;;;5.32;2.28;;;35.00;29.10;;;;;;6251680;28;20037;-78
2021/09/24 13:20:49;;;;;;;3.78;2.38;;;34.70;29.50;;;;;;6260729;28;20299;-79
2021/09/24 13:23:53;;;;;;;6.85;2.00;;;34.20;30.00;;;;;;6239220;28;20449;-78
2021/09/24 13:26:56;;;;;;;6.55;2.30;;;33.70;30.50;;;;;;6260988;28;20035;-79
2021/09/24 13:29:57;;;;;;;5.32;2.88;;;33.30;31.20;;;;;;6247050;28;20045;-78
2021/09/24 13:32:58;;;;;;;3.03;2.35;;;32.90;31.90;;;;;;6231116;28;20053;-78
2021/09/24 13:35:59;;;;;;;3.60;2.70;;;32.50;32.60;;;;;;6255055;28;20048;-79
2021/09/24 13:39:00;;;;;;;3.88;2.55;;;32.20;33.20;;;;;;6228370;28;20328;-78
2021/09/24 13:42:01;;;;;;;4.38;2.47;;;31.90;33.60;;;;;;6203432;28;20104;-79
2021/09/24 13:45:02;;;;;;;4.93;3.03;;;31.60;34.10;;;;;;6239129;28;20032;-77
2021/09/24 13:48:04;;;;;;;4.18;2.30;;;31.40;34.60;;;;;;6265071;28;20341;-78
2021/09/24 13:51:06;;;;;;;3.97;2.65;;;31.20;34.90;;;;;;6265483;28;20040;-78
2021/09/24 13:54:07;;;;;;;3.85;2.38;;;31.10;35.20;;;;;;6243673;28;20876;-78
2021/09/24 13:57:08;;;;;;;3.17;2.05;;;31.00;35.60;;;;;;6219923;28;20054;-78
2021/09/24 14:00:09;;;;;;;3.72;2.80;;;30.90;36.00;;;;;;6208333;28;20033;-79
2021/09/24 14:03:13;;;;;;;4.05;2.80;;;30.70;36.20;;;;;;6244938;28;20048;-78
2021/09/24 14:06:14;;;;;;;5.78;2.80;;;30.60;36.40;;;;;;6250425;28;20327;-78
2021/09/24 14:09:15;;;;;;;5.80;2.80;;;30.50;36.70;;;;;;6270211;28;20025;-78
2021/09/24 14:12:16;;;;;;;5.68;2.90;;;30.40;36.80;;;;;;6269137;28;20025;-79
2021/09/24 14:15:17;;;;;;;3.20;2.40;;;30.30;37.10;;;;;;6270652;28;20323;-78
2021/09/24 14:18:18;;;;;;;3.30;2.47;;;30.20;37.20;;;;;;6236353;28;20059;-79
2021/09/24 14:21:19;;;;;;;6.25;2.28;;;30.20;37.40;;;;;;6270666;28;20037;-79
2021/09/24 14:24:20;;;;;;;4.47;2.42;;;30.10;37.20;;;;;;6268290;28;20387;-78
2021/09/24 14:27:21;;;;;;;4.38;2.40;;;30.10;37.20;;;;;;6258008;28;20040;-78
2021/09/24 14:30:22;;;;;;;3.00;2.20;;;30.00;37.40;;;;;;6268997;28;20061;-78
2021/09/24 14:33:23;;;;;;;10.35;5.55;;;30.00;37.40;;;;;;6258863;28;20116;-79
2021/09/24 14:36:24;;;;;;;6.40;2.45;;;30.00;37.20;;;;;;6268724;28;20039;-78
2021/09/24 14:39:25;;;;;;;6.57;2.28;;;30.00;36.90;;;;;;6270276;28;20041;-78
2021/09/24 14:42:27;;;;;;;10.45;2.42;;;29.90;36.60;;;;;;6226986;28;20110;-78
2021/09/24 14:45:28;;;;;;;6.00;1.73;;;29.90;36.20;;;;;;6240099;28;20439;-78
2021/09/24 14:48:29;;;;;;;5.05;1.77;;;29.90;35.80;;;;;;6270004;28;20039;-78
2021/09/24 14:51:30;;;;;;;3.53;1.67;;;29.90;35.60;;;;;;6269975;28;20032;-78
2021/09/24 14:54:31;;;;;;;5.63;2.00;;;29.80;35.70;;;;;;6254334;28;20061;-78
2021/09/24 14:57:32;;;;;;;3.83;1.90;;;29.80;35.80;;;;;;6273791;28;20032;-78
2021/09/24 15:00:34;;;;;;;5.25;1.70;;;29.80;35.70;;;;;;6288443;28;20096;-77
2021/09/24 15:03:35;;;;;;;2.92;1.83;;;29.80;35.70;;;;;;6245280;28;20025;-78
2021/09/24 15:06:36;;;;;;;5.18;1.67;;;29.80;35.80;;;;;;6225772;28;20041;-78
2021/09/24 15:09:37;;;;;;;5.07;1.85;;;29.80;35.90;;;;;;6249495;28;20040;-77
2021/09/24 15:12:38;;;;;;;3.30;2.20;;;29.80;36.10;;;;;;6269021;28;20350;-78
2021/09/24 15:15:39;;;;;;;3.45;2.03;;;29.80;36.60;;;;;;6283056;28;20457;-77
2021/09/24 15:18:40;;;;;;;4.47;2.33;;;29.70;36.80;;;;;;6280912;28;20052;-79
2021/09/24 15:21:42;;;;;;;5.05;2.70;;;29.70;37.10;;;;;;6253674;28;20462;-78
2021/09/24 15:24:42;;;;;;;2.58;2.00;;;29.70;37.30;;;;;;6255088;28;20041;-79
2021/09/24 15:27:46;;;;;;;5.85;2.35;;;29.60;37.40;;;;;;6268762;28;20040;-80
2021/09/24 15:30:49;;;;;;;8.40;2.58;;;29.60;37.50;;;;;;6262367;28;20044;-78
2021/09/24 15:33:50;;;;;;;4.15;2.55;;;29.60;37.60;;;;;;6284079;28;20044;-78
2021/09/24 15:36:51;;;;;;;4.75;2.80;;;29.60;37.70;;;;;;6266376;28;20029;-79
2021/09/24 15:39:52;;;;;;;6.35;2.60;;;29.60;37.80;;;;;;6275718;28;20040;-79
2021/09/24 15:42:53;;;;;;;4.88;2.03;;;29.60;37.90;;;;;;6275605;28;20032;-79
2021/09/24 15:45:54;;;;;;;5.20;2.20;;;29.60;37.90;;;;;;6262924;28;20025;-78